Nvo.santanina — EA2910 — position and weather

sailwx.info

Track history (hours):
 
Tides and Currents Weather Stations Pressure Air Temp Water Temp Dewpoint Dewpoint Depression Visibility Wind Speed Wind Dir Waves Ship Positions

Nvo.santanina

Last reported at 2018-Feb-20 23:16 UTC. Time now 2018-Feb-21 09:37 UTC.
Position N 43°37' W 005°40'.

Length 26 m.

Type: Fishing. MMSI: 224137770.

Date/timePositionNaut miles runAvg speedWind from/ knotsBaromVisibWave heightAir tempDewpointWater temp
2018-Feb-20 23:16N 43°37' W 005°40'5 1.6
2018-Feb-20 20:21N 43°37' W 005°34'5 0.3
2018-Feb-20 04:25N 43°34' W 005°40'4 8.7
2018-Feb-20 03:55N 43°36' W 005°34'1 1.1
2018-Feb-20 03:27N 43°36' W 005°34'1 0.9
2018-Feb-20 02:45N 43°37' W 005°34'0 0.9
2018-Feb-20 02:30N 43°37' W 005°34'0 0.9
2018-Feb-20 02:00N 43°37' W 005°34'0 0.1
2018-Feb-19 23:20N 43°37' W 005°34'1 0.2
2018-Feb-19 20:39N 43°36' W 005°34'0 1.1
2018-Feb-19 20:29N 43°37' W 005°34'0 0.3
2018-Feb-19 19:21N 43°36' W 005°34'11 0.9
2018-Feb-19 06:08N 43°41' W 005°49'2 8.4
2018-Feb-19 05:57N 43°40' W 005°47'4 8.4
2018-Feb-19 05:30N 43°39' W 005°42'5 8.1
2018-Feb-19 04:57N 43°38' W 005°36'3 7.8
2018-Feb-19 04:30N 43°36' W 005°31'3 3.3
2018-Feb-19 03:36N 43°35' W 005°35'1 4.4
2018-Feb-19 03:17N 43°36' W 005°35'1 2.8
2018-Feb-19 03:00N 43°36' W 005°34'0 0.7
2018-Feb-19 02:24N 43°36' W 005°35'0 0.4
2018-Feb-19 01:58N 43°36' W 005°35'3 5.1
2018-Feb-19 01:28N 43°36' W 005°39'  
2018-Feb-14 23:29N 43°37' W 005°39'  
Track history (hours):
 
Tides and Currents Weather Stations Pressure Air Temp Water Temp Dewpoint Dewpoint Depression Visibility Wind Speed Wind Dir Waves Ship Positions

Nvo.santanina

Last reported at 2018-Feb-20 23:16 UTC. Time now 2018-Feb-21 09:37 UTC.
Position N 43°37' W 005°40'.

Length 26 m.

Type: Fishing. MMSI: 224137770.

Date/timePositionNaut miles runAvg speedWind from/ knotsBaromVisibWave heightAir tempDewpointWater temp
2018-Feb-20 23:16N 43°37' W 005°40'5 1.6
2018-Feb-20 20:21N 43°37' W 005°34'5 0.3
2018-Feb-20 04:25N 43°34' W 005°40'4 8.7
2018-Feb-20 03:55N 43°36' W 005°34'1 1.1
2018-Feb-20 03:27N 43°36' W 005°34'1 0.9
2018-Feb-20 02:45N 43°37' W 005°34'0 0.9
2018-Feb-20 02:30N 43°37' W 005°34'0 0.9
2018-Feb-20 02:00N 43°37' W 005°34'0 0.1
2018-Feb-19 23:20N 43°37' W 005°34'1 0.2
2018-Feb-19 20:39N 43°36' W 005°34'0 1.1
2018-Feb-19 20:29N 43°37' W 005°34'0 0.3
2018-Feb-19 19:21N 43°36' W 005°34'11 0.9
2018-Feb-19 06:08N 43°41' W 005°49'2 8.4
2018-Feb-19 05:57N 43°40' W 005°47'4 8.4
2018-Feb-19 05:30N 43°39' W 005°42'5 8.1
2018-Feb-19 04:57N 43°38' W 005°36'3 7.8
2018-Feb-19 04:30N 43°36' W 005°31'3 3.3
2018-Feb-19 03:36N 43°35' W 005°35'1 4.4
2018-Feb-19 03:17N 43°36' W 005°35'1 2.8
2018-Feb-19 03:00N 43°36' W 005°34'0 0.7
2018-Feb-19 02:24N 43°36' W 005°35'0 0.4
2018-Feb-19 01:58N 43°36' W 005°35'3 5.1
2018-Feb-19 01:28N 43°36' W 005°39'  
2018-Feb-14 23:29N 43°37' W 005°39'  

Dump ship's entire track history